Time;durP1;ratioP1;P1;durP2;ratioP2;P2;SDS_P1;SDS_P2;PMS_P1;PMS_P2;Temp;Humidity;BMP_temperature;BMP_pressure;BME280_temperature;BME280_humidity;BME280_pressure;Samples;Min_cycle;Max_cycle;Signal;HPM_P1;HPM_P2
2022/02/23 00:00:05;;;;;;;4.22;1.55;;;17.50;55.20;;;;;;5075957;28;20170;-60
2022/02/23 00:02:34;;;;;;;2.70;1.40;;;17.50;55.20;;;;;;5076839;28;20265;-59
2022/02/23 00:05:03;;;;;;;3.78;1.30;;;17.50;55.20;;;;;;5076392;28;20625;-59
2022/02/23 00:07:28;;;;;;;3.15;1.63;;;17.50;55.20;;;;;;5075874;28;20200;-59
2022/02/23 00:09:54;;;;;;;2.42;1.30;;;17.50;55.10;;;;;;5076458;28;20243;-60
2022/02/23 00:12:19;;;;;;;4.88;1.73;;;17.50;55.10;;;;;;5075844;28;20537;-61
2022/02/23 00:14:45;;;;;;;2.53;1.30;;;17.40;55.10;;;;;;5076510;28;20221;-60
2022/02/23 00:17:10;;;;;;;2.33;1.50;;;17.40;55.10;;;;;;5076192;28;20202;-61
2022/02/23 00:19:36;;;;;;;3.35;1.55;;;17.40;55.20;;;;;;5075802;28;20182;-61
2022/02/23 00:22:02;;;;;;;2.65;1.38;;;17.40;55.10;;;;;;5075990;28;20198;-60
2022/02/23 00:24:27;;;;;;;3.45;1.40;;;17.40;55.10;;;;;;5076578;28;20181;-60
2022/02/23 00:26:53;;;;;;;2.83;1.33;;;17.40;55.20;;;;;;5075391;28;20191;-60
2022/02/23 00:29:18;;;;;;;2.92;1.30;;;17.40;55.20;;;;;;5076345;28;20174;-60
2022/02/23 00:31:44;;;;;;;3.33;1.67;;;17.40;55.00;;;;;;5076264;28;20182;-59
2022/02/23 00:34:09;;;;;;;2.75;1.27;;;17.40;55.00;;;;;;5074913;28;20571;-60
2022/02/23 00:36:35;;;;;;;4.95;1.70;;;17.30;55.10;;;;;;5076246;28;20174;-60
2022/02/23 00:39:00;;;;;;;3.28;1.80;;;17.30;55.10;;;;;;5075964;28;20213;-59
2022/02/23 00:41:26;;;;;;;4.18;1.52;;;17.30;55.00;;;;;;5075398;28;20219;-60
2022/02/23 00:43:51;;;;;;;4.10;1.33;;;17.30;55.00;;;;;;5075961;28;20182;-60
2022/02/23 00:46:17;;;;;;;3.17;1.70;;;17.30;55.20;;;;;;5075776;28;20179;-60
2022/02/23 00:48:42;;;;;;;3.58;1.70;;;17.30;55.10;;;;;;5075177;28;20181;-60
2022/02/23 00:51:08;;;;;;;3.00;1.70;;;17.30;55.00;;;;;;5075485;28;20181;-60
2022/02/23 00:53:33;;;;;;;4.88;1.55;;;17.20;55.00;;;;;;5075244;28;20230;-60
2022/02/23 00:55:59;;;;;;;2.70;1.60;;;17.20;54.90;;;;;;5074868;28;20174;-60
2022/02/23 00:58:24;;;;;;;4.50;1.75;;;17.20;54.90;;;;;;5075650;28;20230;-60
2022/02/23 01:00:50;;;;;;;4.75;1.95;;;17.20;54.90;;;;;;5075648;28;20198;-59
2022/02/23 01:03:15;;;;;;;3.92;1.50;;;17.20;54.90;;;;;;5074490;28;20660;-60
2022/02/23 01:05:41;;;;;;;3.30;1.65;;;17.20;54.90;;;;;;5075481;28;20185;-60
2022/02/23 01:08:06;;;;;;;4.75;1.85;;;17.20;55.00;;;;;;5075111;28;20165;-59
2022/02/23 01:10:32;;;;;;;3.15;1.40;;;17.20;54.90;;;;;;5074223;28;20179;-60
2022/02/23 01:12:58;;;;;;;4.45;1.70;;;17.20;54.80;;;;;;5075348;28;20781;-61
2022/02/23 01:15:24;;;;;;;5.18;1.60;;;17.20;54.90;;;;;;5075349;28;20217;-61
2022/02/23 01:17:49;;;;;;;3.88;1.65;;;17.10;54.70;;;;;;5074556;28;20177;-60
2022/02/23 01:20:15;;;;;;;3.20;1.50;;;17.20;54.70;;;;;;5075168;28;20562;-60
2022/02/23 01:22:40;;;;;;;4.30;1.85;;;17.10;54.70;;;;;;5074452;28;20177;-60
2022/02/23 01:25:06;;;;;;;4.43;1.77;;;17.10;54.70;;;;;;5075137;28;20174;-60
2022/02/23 01:27:31;;;;;;;2.83;1.40;;;17.10;54.70;;;;;;5075312;28;20170;-60
2022/02/23 01:29:58;;;;;;;3.90;2.05;;;17.10;54.70;;;;;;5074399;28;20174;-59
2022/02/23 01:32:24;;;;;;;5.18;2.03;;;17.10;54.60;;;;;;5075156;28;20166;-60
2022/02/23 01:34:49;;;;;;;3.30;1.77;;;17.10;54.70;;;;;;5074919;28;20206;-59
2022/02/23 01:37:15;;;;;;;3.05;1.30;;;17.10;54.60;;;;;;5074126;28;20170;-60
2022/02/23 01:39:40;;;;;;;4.55;2.05;;;17.00;54.60;;;;;;5075165;28;20175;-59
2022/02/23 01:42:06;;;;;;;1.90;1.33;;;17.00;54.60;;;;;;5074474;28;20171;-60
2022/02/23 01:44:32;;;;;;;4.30;1.90;;;17.00;54.60;;;;;;5074310;28;20210;-60
2022/02/23 01:46:57;;;;;;;4.15;2.35;;;17.00;54.60;;;;;;5074723;28;20223;-60
2022/02/23 01:49:23;;;;;;;5.20;2.08;;;17.00;54.60;;;;;;5074606;28;20258;-60
2022/02/23 01:51:49;;;;;;;3.25;1.88;;;17.00;54.60;;;;;;5074277;28;20166;-60
2022/02/23 01:54:15;;;;;;;4.93;1.58;;;17.00;54.60;;;;;;5074439;28;20556;-60
2022/02/23 01:56:40;;;;;;;3.55;2.25;;;17.00;54.60;;;;;;5074343;28;20517;-59
2022/02/23 01:59:06;;;;;;;3.42;1.70;;;17.00;54.50;;;;;;5073608;28;20186;-59
2022/02/23 02:01:31;;;;;;;4.88;2.00;;;17.00;54.50;;;;;;5074682;28;20174;-61
2022/02/23 02:03:57;;;;;;;4.35;1.88;;;16.90;54.40;;;;;;5074054;28;20174;-59
2022/02/23 02:06:22;;;;;;;4.57;1.95;;;16.90;54.50;;;;;;5073839;28;20212;-60
2022/02/23 02:08:48;;;;;;;4.03;1.70;;;16.90;54.60;;;;;;5074505;28;20170;-60
2022/02/23 02:11:13;;;;;;;5.65;2.00;;;16.90;54.60;;;;;;5074198;28;20177;-60
2022/02/23 02:13:39;;;;;;;3.42;1.50;;;16.90;54.60;;;;;;5073490;28;20382;-61
2022/02/23 02:16:05;;;;;;;3.15;1.40;;;16.90;54.60;;;;;;5074006;28;20577;-60
2022/02/23 02:18:30;;;;;;;3.80;1.50;;;16.90;54.50;;;;;;5074317;28;20170;-60
2022/02/23 02:20:56;;;;;;;3.60;1.70;;;16.90;54.50;;;;;;5072812;28;20312;-60
2022/02/23 02:23:24;;;;;;;4.78;1.80;;;16.90;54.60;;;;;;5073687;28;20170;-61
2022/02/23 02:25:49;;;;;;;3.97;1.65;;;16.80;54.60;;;;;;5073901;28;20265;-60
2022/02/23 02:28:15;;;;;;;4.53;1.80;;;16.80;54.40;;;;;;5073242;28;20261;-60
2022/02/23 02:30:40;;;;;;;3.33;1.75;;;16.90;54.50;;;;;;5074085;28;20167;-59
2022/02/23 02:33:06;;;;;;;3.10;1.77;;;16.80;54.40;;;;;;5072992;28;20636;-59
2022/02/23 02:35:36;;;;;;;3.58;1.90;;;16.80;54.40;;;;;;5073980;28;20596;-60
2022/02/23 02:38:03;;;;;;;5.22;2.00;;;16.80;54.40;;;;;;5073669;28;20194;-60
2022/02/23 02:40:28;;;;;;;3.97;1.75;;;16.80;54.40;;;;;;5073022;28;20668;-60
2022/02/23 02:42:54;;;;;;;4.63;1.73;;;16.80;54.50;;;;;;5073498;28;20167;-60
2022/02/23 02:45:19;;;;;;;4.40;2.08;;;16.80;54.50;;;;;;5073676;28;20194;-60
2022/02/23 02:47:45;;;;;;;3.17;1.63;;;16.80;54.40;;;;;;5072723;28;20286;-60
2022/02/23 02:50:10;;;;;;;5.43;1.85;;;16.80;54.50;;;;;;5073520;28;20178;-60
2022/02/23 02:52:36;;;;;;;2.63;1.60;;;16.80;54.40;;;;;;5073589;28;20182;-60
2022/02/23 02:55:01;;;;;;;3.13;1.73;;;16.80;54.30;;;;;;5072498;28;20225;-61
2022/02/23 02:57:27;;;;;;;5.03;2.08;;;16.80;54.50;;;;;;5073326;28;20214;-60
2022/02/23 02:59:53;;;;;;;5.00;1.73;;;16.80;54.40;;;;;;5073046;28;20170;-59
2022/02/23 03:02:18;;;;;;;3.60;1.70;;;16.70;54.40;;;;;;5072529;28;20529;-60
2022/02/23 03:04:44;;;;;;;5.53;1.83;;;16.70;54.30;;;;;;5073455;28;20193;-59
2022/02/23 03:07:09;;;;;;;5.90;1.73;;;16.70;54.30;;;;;;5073043;28;20166;-60
2022/02/23 03:09:35;;;;;;;4.50;1.60;;;16.70;54.40;;;;;;5072659;28;20170;-60
2022/02/23 03:12:00;;;;;;;3.90;1.38;;;16.70;54.30;;;;;;5073068;28;20174;-60
2022/02/23 03:14:26;;;;;;;4.65;1.77;;;16.70;54.30;;;;;;5072999;28;20213;-60
2022/02/23 03:16:51;;;;;;;5.38;1.67;;;16.70;54.30;;;;;;5072338;28;20179;-60
2022/02/23 03:19:17;;;;;;;4.30;1.60;;;16.70;54.30;;;;;;5072664;28;20539;-60
2022/02/23 03:21:42;;;;;;;5.93;2.28;;;16.70;54.20;;;;;;5072862;28;20201;-60
2022/02/23 03:24:08;;;;;;;3.65;1.80;;;16.60;54.20;;;;;;5071259;28;20174;-60
2022/02/23 03:26:33;;;;;;;4.78;2.15;;;16.70;54.20;;;;;;5072165;28;20170;-59
2022/02/23 03:28:59;;;;;;;5.93;2.00;;;16.60;54.10;;;;;;5071878;28;20198;-59
2022/02/23 03:31:24;;;;;;;4.57;1.70;;;16.60;54.20;;;;;;5071376;28;20514;-59
2022/02/23 03:33:50;;;;;;;3.00;1.60;;;16.60;54.10;;;;;;5071832;28;20210;-60
2022/02/23 03:36:16;;;;;;;3.25;1.40;;;16.60;54.10;;;;;;5071082;28;20171;-60
2022/02/23 03:38:43;;;;;;;7.45;2.28;;;16.60;54.10;;;;;;5072012;28;20189;-59
2022/02/23 03:41:08;;;;;;;3.38;1.70;;;16.60;54.10;;;;;;5071726;28;20182;-60
2022/02/23 03:43:34;;;;;;;3.10;1.73;;;16.60;54.10;;;;;;5071183;28;20174;-60
2022/02/23 03:45:59;;;;;;;5.20;2.25;;;16.60;54.10;;;;;;5071269;28;20178;-60
2022/02/23 03:48:25;;;;;;;3.30;1.42;;;16.60;54.10;;;;;;5072028;28;20167;-60
2022/02/23 03:50:50;;;;;;;3.55;1.63;;;16.60;54.10;;;;;;5071233;28;20182;-60
2022/02/23 03:53:16;;;;;;;4.47;1.67;;;16.60;54.10;;;;;;5071468;28;20170;-60
2022/02/23 03:55:41;;;;;;;4.18;1.80;;;16.50;54.00;;;;;;5071817;28;20186;-61
2022/02/23 03:58:08;;;;;;;4.32;1.77;;;16.50;54.00;;;;;;5070424;28;20681;-60
2022/02/23 04:00:35;;;;;;;2.40;1.63;;;16.50;54.70;;;;;;5071610;28;20202;-59
2022/02/23 04:03:00;;;;;;;4.20;1.63;;;16.50;54.00;;;;;;5071373;28;20178;-59
2022/02/23 04:05:26;;;;;;;3.28;1.60;;;16.50;54.00;;;;;;5071114;28;20175;-60
2022/02/23 04:07:51;;;;;;;4.10;1.60;;;16.50;54.00;;;;;;5071566;28;20175;-59
2022/02/23 04:10:19;;;;;;;6.70;1.92;;;16.50;54.00;;;;;;5071595;28;20228;-60
2022/02/23 04:12:46;;;;;;;4.28;1.88;;;16.50;54.00;;;;;;5071108;28;20257;-61
2022/02/23 04:15:12;;;;;;;4.45;1.70;;;16.50;54.00;;;;;;5071264;28;20218;-60
2022/02/23 04:17:37;;;;;;;4.82;1.67;;;16.50;54.00;;;;;;5071831;28;20220;-60
2022/02/23 04:20:04;;;;;;;4.97;2.28;;;16.50;54.10;;;;;;5070752;28;20171;-60
2022/02/23 04:22:29;;;;;;;3.17;1.73;;;16.40;54.00;;;;;;5071651;28;20174;-60
2022/02/23 04:24:55;;;;;;;3.00;1.60;;;16.40;54.00;;;;;;5071300;28;20542;-60
2022/02/23 04:27:20;;;;;;;3.65;1.77;;;16.40;54.00;;;;;;5070810;28;20625;-60
2022/02/23 04:29:46;;;;;;;3.35;1.67;;;16.40;54.00;;;;;;5071422;28;20182;-59
2022/02/23 04:32:12;;;;;;;3.55;1.88;;;16.40;54.00;;;;;;5071361;28;20178;-59
2022/02/23 04:34:37;;;;;;;5.53;1.58;;;16.40;54.00;;;;;;5070769;28;20266;-59
2022/02/23 04:37:03;;;;;;;3.80;1.65;;;16.40;54.00;;;;;;5071231;28;20648;-60
2022/02/23 04:39:28;;;;;;;19.95;1.92;;;16.40;54.10;;;;;;5071261;28;20179;-60
2022/02/23 04:41:54;;;;;;;6.20;2.15;;;16.40;54.10;;;;;;5070966;28;20182;-60
2022/02/23 04:44:19;;;;;;;3.92;2.10;;;16.40;54.00;;;;;;5071203;28;20273;-60
2022/02/23 04:46:45;;;;;;;4.40;2.25;;;16.40;54.00;;;;;;5074446;28;20166;-60
2022/02/23 04:49:10;;;;;;;3.92;1.40;;;16.30;53.90;;;;;;5074735;28;20523;-60
2022/02/23 04:51:38;;;;;;;3.33;1.65;;;16.30;53.90;;;;;;5074967;28;20194;-61
2022/02/23 04:54:03;;;;;;;3.55;1.58;;;16.30;53.90;;;;;;5073912;28;20234;-61
2022/02/23 04:56:29;;;;;;;3.83;1.92;;;16.30;53.90;;;;;;5074825;28;20201;-61
2022/02/23 04:58:54;;;;;;;4.07;1.77;;;16.30;53.90;;;;;;5074333;28;20299;-60
2022/02/23 05:01:20;;;;;;;4.20;1.90;;;16.30;54.00;;;;;;5073994;28;20715;-60
2022/02/23 05:03:45;;;;;;;4.47;2.25;;;16.30;53.90;;;;;;5074588;28;20179;-59
2022/02/23 05:06:11;;;;;;;5.57;2.15;;;16.30;53.90;;;;;;5074548;28;20288;-60
2022/02/23 05:08:37;;;;;;;2.60;1.70;;;16.30;53.90;;;;;;5073987;28;20174;-60
2022/02/23 05:11:02;;;;;;;4.97;2.20;;;16.30;54.00;;;;;;5074243;28;20171;-61
2022/02/23 05:13:29;;;;;;;7.03;2.05;;;16.30;53.90;;;;;;5074381;28;20641;-61
2022/02/23 05:15:56;;;;;;;3.60;1.60;;;16.30;54.00;;;;;;5073719;28;20583;-61
2022/02/23 05:18:28;;;;;;;3.88;1.67;;;16.30;54.00;;;;;;5074694;28;20227;-61
2022/02/23 05:20:55;;;;;;;2.67;1.70;;;16.20;53.90;;;;;;5073981;28;20175;-60
2022/02/23 05:23:20;;;;;;;4.15;2.40;;;16.30;54.00;;;;;;5073638;28;20177;-60
2022/02/23 05:25:46;;;;;;;4.43;2.08;;;16.20;53.90;;;;;;5074114;28;20544;-60
2022/02/23 05:28:11;;;;;;;3.88;1.98;;;16.30;54.00;;;;;;5073695;28;20761;-60
2022/02/23 05:30:37;;;;;;;5.82;2.30;;;16.20;53.90;;;;;;5073596;28;20206;-60
2022/02/23 05:33:04;;;;;;;4.47;1.90;;;16.20;53.90;;;;;;5073929;28;20182;-59
2022/02/23 05:35:29;;;;;;;4.43;1.48;;;16.20;53.90;;;;;;5073938;28;20676;-60
2022/02/23 05:37:55;;;;;;;4.60;1.60;;;16.20;53.90;;;;;;5073017;28;20191;-60
2022/02/23 05:40:20;;;;;;;5.38;2.30;;;16.20;54.00;;;;;;5073812;28;20692;-60
2022/02/23 05:42:46;;;;;;;4.28;1.90;;;16.20;53.90;;;;;;5073407;28;20565;-60
2022/02/23 05:45:11;;;;;;;5.30;1.90;;;16.20;54.00;;;;;;5073140;28;20753;-60
2022/02/23 05:47:37;;;;;;;5.22;1.92;;;16.20;54.00;;;;;;5073743;28;20177;-60
2022/02/23 05:50:03;;;;;;;3.95;1.60;;;16.20;53.90;;;;;;5072551;28;20189;-61
2022/02/23 05:52:28;;;;;;;3.80;1.63;;;16.10;53.80;;;;;;5073531;28;20177;-60
2022/02/23 05:54:54;;;;;;;4.13;2.00;;;16.20;54.00;;;;;;5073244;28;20684;-60
2022/02/23 05:57:19;;;;;;;4.63;2.10;;;16.10;53.90;;;;;;5072362;28;20324;-61
2022/02/23 05:59:45;;;;;;;3.63;1.77;;;16.10;54.00;;;;;;5073552;28;20265;-59
2022/02/23 06:02:10;;;;;;;4.05;1.80;;;16.20;53.90;;;;;;5073015;28;20564;-59
2022/02/23 06:04:36;;;;;;;2.28;1.63;;;16.10;53.80;;;;;;5072787;28;20227;-59
2022/02/23 06:07:02;;;;;;;3.30;1.45;;;16.10;53.90;;;;;;5073115;28;20190;-60
2022/02/23 06:09:28;;;;;;;4.50;2.20;;;16.10;53.90;;;;;;5073287;28;20174;-60
2022/02/23 06:11:53;;;;;;;2.95;1.80;;;16.10;53.80;;;;;;5072216;28;20485;-61
2022/02/23 06:14:19;;;;;;;4.05;2.00;;;16.10;53.90;;;;;;5073295;28;20304;-60
2022/02/23 06:16:44;;;;;;;2.95;1.60;;;16.10;53.80;;;;;;5073287;28;20264;-60
2022/02/23 06:19:10;;;;;;;5.35;2.00;;;16.10;53.80;;;;;;5072282;28;20261;-62
2022/02/23 06:21:35;;;;;;;5.22;2.10;;;16.10;53.80;;;;;;5072798;28;20197;-59
2022/02/23 06:24:01;;;;;;;3.25;1.77;;;16.00;53.90;;;;;;5072537;28;20561;-59
2022/02/23 06:26:26;;;;;;;4.00;1.75;;;16.00;53.80;;;;;;5072259;28;20243;-59
2022/02/23 06:28:52;;;;;;;3.90;2.13;;;16.10;54.00;;;;;;5072949;28;20174;-59
2022/02/23 06:31:17;;;;;;;4.13;1.80;;;16.00;53.80;;;;;;5073220;28;20265;-59
2022/02/23 06:33:44;;;;;;;7.45;2.00;;;16.00;53.90;;;;;;5072009;28;20588;-59
2022/02/23 06:36:10;;;;;;;3.85;1.73;;;16.00;53.80;;;;;;5072510;28;20170;-59
2022/02/23 06:38:40;;;;;;;3.60;1.80;;;16.00;53.80;;;;;;5072762;28;20184;-59
2022/02/23 06:41:08;;;;;;;4.07;1.85;;;16.00;53.80;;;;;;5071503;28;20250;-59
2022/02/23 06:43:34;;;;;;;3.80;1.75;;;16.00;53.90;;;;;;5072847;28;20344;-59
2022/02/23 06:46:00;;;;;;;2.65;1.60;;;16.00;53.90;;;;;;5072414;28;20296;-59
2022/02/23 06:48:25;;;;;;;3.15;1.83;;;16.00;53.80;;;;;;5053969;28;20194;-59
2022/02/23 06:50:51;;;;;;;5.65;1.58;;;16.00;53.90;;;;;;5072499;28;20622;-59
2022/02/23 06:53:16;;;;;;;3.17;1.50;;;15.90;53.80;;;;;;5071135;28;20232;-60
2022/02/23 06:55:42;;;;;;;3.10;1.85;;;16.00;53.90;;;;;;5054411;28;20311;-60
2022/02/23 06:58:08;;;;;;;4.20;2.10;;;15.90;53.80;;;;;;5071567;28;20584;-59
2022/02/23 07:00:33;;;;;;;2.50;1.70;;;15.90;53.80;;;;;;5071551;28;20200;-58
2022/02/23 07:02:59;;;;;;;4.72;1.65;;;15.90;53.80;;;;;;5071751;28;20223;-59
2022/02/23 07:05:24;;;;;;;3.92;1.80;;;15.90;54.00;;;;;;5072047;28;20642;-58
2022/02/23 07:07:50;;;;;;;4.93;2.13;;;16.00;54.60;;;;;;5070761;28;20175;-58
2022/02/23 07:10:23;;;;;;;5.95;1.80;;;16.00;53.80;;;;;;5071621;28;20652;-60
2022/02/23 07:12:49;;;;;;;5.75;2.00;;;16.00;53.80;;;;;;5072182;28;20171;-60
2022/02/23 07:15:15;;;;;;;3.33;1.98;;;16.10;53.80;;;;;;5071161;28;20217;-59
2022/02/23 07:17:41;;;;;;;3.28;1.50;;;16.10;53.80;;;;;;5072108;28;20185;-59
2022/02/23 07:20:08;;;;;;;4.60;2.35;;;16.20;54.00;;;;;;5071557;28;20485;-60
2022/02/23 07:22:33;;;;;;;2.75;1.40;;;16.30;54.00;;;;;;5071091;28;20185;-59
2022/02/23 07:24:59;;;;;;;3.00;1.50;;;16.30;54.00;;;;;;5071462;28;20245;-59
2022/02/23 07:27:26;;;;;;;3.50;2.03;;;16.40;53.90;;;;;;5071841;28;20216;-59
2022/02/23 07:29:52;;;;;;;2.40;1.52;;;16.50;53.80;;;;;;5071167;28;20186;-58
2022/02/23 07:32:19;;;;;;;2.85;1.52;;;16.70;53.80;;;;;;5071784;28;20224;-59
2022/02/23 07:34:47;;;;;;;3.25;1.73;;;16.60;53.70;;;;;;5071650;28;20217;-58
2022/02/23 07:37:13;;;;;;;4.50;1.80;;;16.70;53.70;;;;;;5070609;28;20641;-59
2022/02/23 07:39:39;;;;;;;1.60;1.20;;;16.80;53.50;;;;;;5071805;28;20174;-59
2022/02/23 07:42:05;;;;;;;3.53;1.83;;;17.10;53.40;;;;;;5071452;28;20253;-60
2022/02/23 07:44:31;;;;;;;2.35;1.60;;;17.20;53.20;;;;;;5071006;28;20308;-60
2022/02/23 07:46:56;;;;;;;3.75;1.70;;;17.40;52.90;;;;;;5071283;28;20223;-60
2022/02/23 07:49:23;;;;;;;2.42;1.40;;;17.60;52.60;;;;;;5071399;28;20612;-59
2022/02/23 07:51:49;;;;;;;4.03;1.50;;;17.80;52.40;;;;;;5071223;28;20170;-71
2022/02/23 07:54:14;;;;;;;5.45;1.50;;;17.90;52.30;;;;;;5071176;28;20244;-72
2022/02/23 07:56:40;;;;;;;4.18;1.95;;;18.00;52.40;;;;;;5071484;28;20174;-74
2022/02/23 07:59:05;;;;;;;4.40;2.15;;;18.10;52.50;;;;;;5070853;28;20226;-72
2022/02/23 08:01:35;;;;;;;3.17;1.60;;;18.20;52.60;;;;;;5071514;28;20182;-66
2022/02/23 08:04:01;;;;;;;2.78;1.70;;;18.20;52.50;;;;;;5070252;28;20265;-70
2022/02/23 08:06:27;;;;;;;4.57;1.98;;;18.30;52.50;;;;;;5071160;28;20193;-69
2022/02/23 08:08:54;;;;;;;4.25;1.70;;;18.30;52.50;;;;;;5071219;28;20257;-72
2022/02/23 08:11:19;;;;;;;4.85;1.92;;;18.40;52.40;;;;;;5070615;28;20322;-67
2022/02/23 08:13:45;;;;;;;4.88;1.67;;;18.40;52.50;;;;;;5071412;28;20304;-75
2022/02/23 08:21:40;;;;;;;4.65;1.70;;;18.50;52.90;;;;;;5075012;28;20181;-67
2022/02/23 08:24:05;;;;;;;8.52;2.35;;;18.50;53.00;;;;;;5074645;28;20171;-67
2022/02/23 08:26:31;;;;;;;6.10;2.13;;;18.50;53.00;;;;;;5074078;28;20181;-67
2022/02/23 08:28:56;;;;;;;7.47;1.65;;;18.50;53.10;;;;;;5074354;28;20178;-69
2022/02/23 08:31:22;;;;;;;4.00;1.65;;;18.60;53.00;;;;;;5074803;28;20214;-68
2022/02/23 08:33:47;;;;;;;8.05;1.80;;;18.60;53.00;;;;;;5074398;28;20206;-70
2022/02/23 08:36:14;;;;;;;5.47;1.63;;;18.70;53.10;;;;;;5074562;28;20273;-71
2022/02/23 08:38:41;;;;;;;4.13;1.88;;;18.70;53.10;;;;;;5079641;28;20243;-70
2022/02/23 08:41:06;;;;;;;4.55;1.67;;;18.70;53.10;;;;;;5090065;28;20173;-69
2022/02/23 08:43:32;;;;;;;5.30;1.90;;;18.70;53.10;;;;;;5094959;28;20584;-70
2022/02/23 08:45:57;;;;;;;3.83;1.50;;;18.70;53.10;;;;;;5093834;28;20181;-68
2022/02/23 08:48:25;;;;;;;4.22;1.52;;;18.70;53.30;;;;;;5094890;28;20170;-68
2022/02/23 08:50:50;;;;;;;3.97;1.90;;;18.60;53.20;;;;;;5095046;28;20253;-67
2022/02/23 08:53:16;;;;;;;4.75;1.73;;;18.60;53.40;;;;;;5093787;28;20615;-67
2022/02/23 08:55:41;;;;;;;4.95;1.77;;;18.60;53.40;;;;;;5094529;28;20217;-66
2022/02/23 08:58:11;;;;;;;5.03;1.88;;;18.60;53.40;;;;;;5082983;28;20248;-67
2022/02/23 09:00:37;;;;;;;3.58;1.60;;;18.60;53.40;;;;;;5073449;28;20657;-69
2022/02/23 09:03:03;;;;;;;6.15;2.17;;;18.60;53.50;;;;;;5074203;28;20211;-68
2022/02/23 09:05:29;;;;;;;2.00;1.48;;;18.60;53.50;;;;;;5074421;28;20207;-70
2022/02/23 09:07:54;;;;;;;4.75;1.80;;;18.60;53.60;;;;;;5073625;28;20628;-69
2022/02/23 09:10:20;;;;;;;2.88;1.50;;;18.60;53.60;;;;;;5074338;28;20284;-68
2022/02/23 09:12:47;;;;;;;2.97;1.35;;;18.60;53.70;;;;;;5074277;28;20174;-68
2022/02/23 09:15:12;;;;;;;4.97;1.63;;;18.60;53.80;;;;;;5072993;28;20833;-66
2022/02/23 09:17:38;;;;;;;5.53;2.35;;;18.50;53.80;;;;;;5074141;28;20186;-67
2022/02/23 09:20:04;;;;;;;3.90;1.85;;;18.50;53.80;;;;;;5073670;28;20682;-66
2022/02/23 09:22:30;;;;;;;2.95;1.38;;;18.50;54.00;;;;;;5073380;28;20273;-66
2022/02/23 09:24:56;;;;;;;2.45;1.60;;;18.50;54.10;;;;;;5073968;28;20269;-67
2022/02/23 09:27:21;;;;;;;3.92;1.55;;;18.50;54.20;;;;;;5073864;28;20181;-66
2022/02/23 09:29:47;;;;;;;3.65;1.42;;;18.50;54.20;;;;;;5073142;28;20520;-68
2022/02/23 09:32:13;;;;;;;4.45;1.90;;;18.40;54.30;;;;;;5073319;28;20195;-68
2022/02/23 09:34:39;;;;;;;4.82;1.48;;;18.40;54.70;;;;;;5073758;28;20674;-70
2022/02/23 09:37:04;;;;;;;4.25;2.25;;;18.40;54.40;;;;;;5073011;28;20180;-70
2022/02/23 09:39:30;;;;;;;2.47;1.58;;;18.40;54.50;;;;;;5074009;28;20178;-69
2022/02/23 09:41:59;;;;;;;4.30;1.55;;;18.40;54.50;;;;;;5072529;28;20231;-71
2022/02/23 09:44:27;;;;;;;3.42;1.50;;;18.40;54.50;;;;;;5073720;28;20254;-68
2022/02/23 09:46:52;;;;;;;1.67;0.88;;;18.40;54.70;;;;;;5073902;28;20250;-69
2022/02/23 09:49:18;;;;;;;3.25;1.30;;;18.50;54.60;;;;;;5073036;28;20219;-68
2022/02/23 09:51:44;;;;;;;5.00;1.58;;;18.50;54.50;;;;;;5073697;28;20555;-69
2022/02/23 09:54:09;;;;;;;9.88;1.80;;;18.50;54.50;;;;;;5073322;28;20202;-67
2022/02/23 09:56:35;;;;;;;6.10;2.17;;;18.50;54.60;;;;;;5072612;28;20508;-68
2022/02/23 09:59:00;;;;;;;5.32;1.55;;;18.40;54.50;;;;;;5073021;28;20229;-68
2022/02/23 10:01:27;;;;;;;3.95;1.45;;;18.50;55.00;;;;;;5073682;28;20201;-68
2022/02/23 10:03:53;;;;;;;5.13;1.50;;;18.50;54.60;;;;;;5072497;28;20186;-69
2022/02/23 10:06:31;;;;;;;5.82;1.70;;;18.50;54.60;;;;;;5073599;28;20241;-69
2022/02/23 10:09:08;;;;;;;5.63;1.60;;;18.50;54.60;;;;;;5073156;28;20520;-69
2022/02/23 10:11:34;;;;;;;5.32;1.45;;;18.50;54.60;;;;;;5072411;28;20170;-67
2022/02/23 10:14:02;;;;;;;3.33;1.60;;;18.50;54.60;;;;;;5073129;28;20263;-67
2022/02/23 10:16:41;;;;;;;3.42;1.27;;;18.50;54.60;;;;;;5073192;28;20171;-66
2022/02/23 10:19:16;;;;;;;4.07;1.40;;;18.50;54.60;;;;;;5072212;28;20235;-67
2022/02/23 10:21:45;;;;;;;3.63;1.60;;;18.50;54.60;;;;;;5072715;28;20261;-66
2022/02/23 10:24:41;;;;;;;2.55;1.27;;;18.50;54.60;;;;;;5071888;28;20537;-65
2022/02/23 10:27:13;;;;;;;1.80;1.08;;;18.50;54.60;;;;;;5051227;28;20530;-66
2022/02/23 10:29:54;;;;;;;4.05;1.90;;;18.50;54.60;;;;;;5072799;28;20171;-67
2022/02/23 10:32:22;;;;;;;4.50;1.75;;;18.50;54.60;;;;;;5071989;28;20515;-69
2022/02/23 10:34:48;;;;;;;2.42;1.63;;;18.50;54.60;;;;;;5072475;28;20561;-71
2022/02/23 10:37:18;;;;;;;4.88;1.98;;;18.50;54.60;;;;;;5072441;28;20211;-68
2022/02/23 10:39:45;;;;;;;2.65;1.63;;;18.50;54.50;;;;;;5071843;28;20213;-69
2022/02/23 10:42:21;;;;;;;3.83;1.50;;;18.60;54.60;;;;;;5071509;28;20620;-69
2022/02/23 10:44:48;;;;;;;3.65;1.67;;;18.60;54.50;;;;;;5072475;28;20174;-68
2022/02/23 10:47:43;;;;;;;2.97;1.35;;;18.60;54.50;;;;;;5071524;28;20182;-67
2022/02/23 10:50:13;;;;;;;3.50;1.60;;;18.60;54.50;;;;;;5050629;28;20183;-68
2022/02/23 10:52:58;;;;;;;5.15;1.70;;;18.60;54.50;;;;;;5071429;28;20178;-67
2022/02/23 10:55:30;;;;;;;4.45;1.73;;;18.60;54.50;;;;;;5072338;28;20284;-67
2022/02/23 10:58:01;;;;;;;3.50;1.95;;;18.60;54.50;;;;;;5071993;28;20309;-68
2022/02/23 11:00:38;;;;;;;4.90;1.65;;;18.60;54.50;;;;;;5071368;28;20185;-68
2022/02/23 11:03:04;;;;;;;3.40;1.52;;;18.60;54.50;;;;;;5071981;28;20238;-67
2022/02/23 11:05:31;;;;;;;3.53;1.55;;;18.60;54.50;;;;;;5072252;28;20622;-67
2022/02/23 11:07:57;;;;;;;3.97;1.30;;;18.60;54.60;;;;;;5071128;28;20205;-67
2022/02/23 11:10:23;;;;;;;4.28;1.92;;;18.60;54.60;;;;;;5072234;28;20183;-67
2022/02/23 11:12:54;;;;;;;2.85;1.42;;;18.60;54.60;;;;;;5071978;28;20642;-66
2022/02/23 11:15:24;;;;;;;2.67;1.95;;;18.60;54.60;;;;;;5070983;28;20241;-70
2022/02/23 11:17:50;;;;;;;7.32;1.95;;;18.60;54.50;;;;;;5071943;28;20174;-68
2022/02/23 11:20:21;;;;;;;3.92;1.73;;;18.50;54.50;;;;;;5071533;28;20182;-66
2022/02/23 11:22:53;;;;;;;2.47;1.38;;;18.60;54.50;;;;;;5053577;28;20174;-66
2022/02/23 11:25:19;;;;;;;3.45;1.38;;;18.60;54.50;;;;;;5072043;28;20485;-66
2022/02/23 11:27:46;;;;;;;3.28;1.75;;;18.70;54.50;;;;;;5036650;28;20333;-67
2022/02/23 11:30:12;;;;;;;4.75;1.60;;;18.70;54.40;;;;;;5037163;28;20235;-69
2022/02/23 11:32:42;;;;;;;4.13;1.58;;;18.70;54.20;;;;;;5037206;28;20187;-68
2022/02/23 11:35:08;;;;;;;4.55;1.45;;;18.80;54.20;;;;;;5070809;28;20217;-68
2022/02/23 11:37:33;;;;;;;3.70;1.52;;;18.80;54.10;;;;;;5071950;28;20228;-68
2022/02/23 11:39:59;;;;;;;5.18;1.92;;;18.80;54.10;;;;;;5071480;28;20621;-68
2022/02/23 11:42:25;;;;;;;2.85;1.17;;;18.80;54.10;;;;;;5070899;28;20245;-68
2022/02/23 11:45:08;;;;;;;4.82;1.60;;;18.80;54.00;;;;;;5071691;28;20656;-68
2022/02/23 11:47:34;;;;;;;3.33;1.48;;;18.90;54.10;;;;;;5055636;28;20645;-67
2022/02/23 11:50:07;;;;;;;4.68;1.42;;;18.90;54.00;;;;;;5070590;28;20258;-69
2022/02/23 11:52:41;;;;;;;3.08;1.30;;;18.90;54.00;;;;;;5071564;28;20174;-71
2022/02/23 11:55:16;;;;;;;3.47;1.23;;;18.90;53.90;;;;;;5054195;28;20210;-67
2022/02/23 11:57:53;;;;;;;3.38;1.52;;;18.90;53.90;;;;;;5070371;28;20237;-66
2022/02/23 12:00:28;;;;;;;2.35;1.30;;;18.90;54.00;;;;;;5071579;28;20174;-66
2022/02/23 12:03:00;;;;;;;4.43;1.88;;;18.90;54.00;;;;;;5070653;28;20173;-65
2022/02/23 12:05:44;;;;;;;4.68;1.45;;;18.90;54.10;;;;;;5071353;28;20182;-70
2022/02/23 12:08:32;;;;;;;4.07;1.40;;;18.90;54.00;;;;;;5070909;28;20295;-69
2022/02/23 12:11:15;;;;;;;4.18;1.30;;;18.90;54.00;;;;;;5070424;28;20167;-68
2022/02/23 12:13:58;;;;;;;4.65;1.50;;;18.90;54.00;;;;;;5071254;28;20190;-68
2022/02/23 12:16:47;;;;;;;3.15;1.40;;;18.90;54.00;;;;;;5071243;28;20269;-67
2022/02/23 12:19:13;;;;;;;5.30;1.73;;;18.90;53.90;;;;;;5070973;28;20183;-67
2022/02/23 12:21:50;;;;;;;5.57;1.88;;;18.90;54.00;;;;;;5071269;28;20324;-68
2022/02/23 12:24:16;;;;;;;3.08;1.45;;;18.90;54.00;;;;;;5052044;28;20219;-67
2022/02/23 12:26:42;;;;;;;1.75;1.27;;;18.80;53.90;;;;;;5071024;28;20356;-68
2022/02/23 12:29:09;;;;;;;2.97;1.48;;;18.90;54.00;;;;;;5070726;28;20166;-66
2022/02/23 12:31:35;;;;;;;4.53;1.48;;;18.80;53.90;;;;;;5070320;28;20186;-67
2022/02/23 12:34:02;;;;;;;5.63;2.00;;;18.80;54.00;;;;;;5070960;28;20292;-67
2022/02/23 12:36:35;;;;;;;6.75;1.67;;;18.80;54.00;;;;;;5071147;28;20194;-68
2022/02/23 12:39:01;;;;;;;4.13;1.60;;;18.80;53.90;;;;;;5070150;28;20511;-69
2022/02/23 12:41:29;;;;;;;2.35;1.35;;;18.80;53.90;;;;;;5052779;28;20166;-68
2022/02/23 12:44:01;;;;;;;3.50;1.67;;;18.80;53.90;;;;;;5070723;28;20182;-69
2022/02/23 12:46:28;;;;;;;5.53;1.63;;;18.80;53.90;;;;;;5070214;28;20655;-69
2022/02/23 12:48:55;;;;;;;3.92;1.65;;;18.80;53.90;;;;;;5070634;28;20247;-70
2022/02/23 12:51:22;;;;;;;3.50;1.60;;;18.80;53.90;;;;;;5070888;28;20201;-68